createdAt,value
2023-01-04T04:37:15.572Z,83.80
2023-01-04T04:47:30.680Z,96.80
2023-01-04T04:57:46.156Z,99.90
2023-01-04T05:08:01.595Z,99.90
2023-01-04T05:18:19.352Z,99.90
2023-01-04T05:28:34.391Z,99.90
2023-01-04T05:38:49.798Z,99.90
2023-01-04T05:49:05.199Z,99.90
2023-01-04T05:59:20.554Z,99.90
2023-01-04T06:09:35.852Z,99.90
2023-01-04T06:19:51.239Z,99.90
2023-01-04T06:30:07.380Z,99.90
2023-01-04T06:40:22.783Z,99.90
2023-01-04T06:50:38.001Z,99.90
2023-01-04T07:00:54.372Z,99.90
2023-01-04T07:11:09.874Z,99.90
2023-01-04T07:21:26.789Z,99.90
2023-01-04T07:31:47.376Z,99.90
2023-01-04T07:42:02.532Z,99.90
2023-01-04T07:52:18.292Z,99.90
2023-01-04T08:02:33.694Z,99.90
2023-01-04T08:12:49.106Z,99.90
2023-01-04T08:23:04.317Z,99.90
2023-01-04T08:33:19.807Z,99.90
2023-01-04T08:43:35.915Z,99.90
2023-01-04T08:53:51.150Z,98.80
2023-01-04T09:04:07.544Z,98.80
2023-01-04T09:14:22.605Z,97.30
2023-01-04T09:24:38.128Z,98.80
2023-01-04T09:34:53.617Z,97.10
2023-01-04T09:45:24.232Z,96.20
2023-01-04T09:55:50.364Z,95.50
2023-01-04T10:06:09.148Z,91.30
2023-01-04T10:17:10.886Z,91.50
2023-01-04T10:27:26.227Z,89.60
2023-01-04T10:37:42.759Z,88.30
2023-01-04T10:48:20.575Z,87.60
2023-01-04T10:58:47.180Z,86.20
2023-01-04T11:09:21.091Z,85.50
2023-01-04T11:19:41.233Z,85.10
2023-01-04T11:30:20.086Z,84.00
2023-01-04T11:40:35.860Z,85.30
2023-01-04T11:50:55.781Z,85.90
2023-01-04T12:01:23.357Z,88.10
2023-01-04T12:11:42.467Z,91.10
2023-01-04T12:22:00.377Z,91.70
2023-01-04T12:32:17.288Z,89.80
2023-01-04T12:42:32.373Z,90.20
2023-01-04T13:03:26.529Z,90.90
2023-01-04T13:13:55.521Z,91.70
2023-01-04T13:24:21.422Z,91.70
2023-01-04T13:34:59.600Z,92.60
2023-01-04T13:45:43.761Z,94.20
2023-01-04T13:56:03.221Z,96.30
2023-01-04T14:06:26.217Z,97.20
2023-01-04T14:16:41.270Z,99.90
2023-01-04T14:26:56.596Z,99.90
2023-01-04T14:37:12.284Z,99.90
2023-01-04T14:47:27.302Z,99.90
2023-01-04T14:57:44.810Z,99.90
2023-01-04T15:08:01.405Z,99.90
2023-01-04T15:18:17.745Z,99.90
2023-01-04T15:28:33.012Z,99.90
2023-01-04T15:38:48.330Z,99.90
2023-01-04T15:49:03.794Z,99.90
2023-01-04T15:59:19.349Z,99.90
2023-01-04T16:09:36.401Z,99.90
2023-01-04T16:19:51.725Z,99.90
2023-01-04T16:30:11.843Z,99.00
2023-01-04T16:40:27.349Z,99.90
2023-01-04T16:50:42.533Z,98.10
2023-01-04T17:01:07.064Z,98.40
2023-01-04T17:12:18.616Z,99.10
2023-01-04T17:22:00.224Z,99.20
2023-01-04T17:32:15.449Z,98.70
2023-01-04T17:42:32.991Z,96.90
2023-01-04T17:52:50.691Z,97.80
2023-01-04T18:03:06.240Z,97.80
2023-01-04T18:13:21.531Z,99.30
2023-01-04T18:23:37.135Z,99.90
2023-01-04T18:33:56.893Z,99.90
2023-01-04T18:54:48.385Z,99.90
2023-01-04T19:05:03.921Z,99.90
2023-01-04T19:15:19.340Z,99.90
2023-01-04T19:25:36.103Z,99.90
2023-01-04T19:35:51.288Z,99.90
2023-01-04T19:46:11.717Z,99.90
2023-01-04T19:56:27.631Z,99.90
2023-01-04T20:06:42.688Z,99.90
2023-01-04T20:16:58.079Z,99.90
2023-01-04T20:27:13.302Z,99.90
2023-01-04T20:37:28.800Z,99.90
2023-01-04T20:47:44.206Z,99.90
2023-01-04T20:57:59.587Z,99.90
2023-01-04T21:08:15.112Z,99.90
2023-01-04T21:18:30.445Z,99.90
2023-01-04T21:28:46.670Z,99.90
2023-01-04T21:39:01.803Z,99.90
2023-01-04T21:49:17.027Z,99.90
2023-01-04T21:59:32.598Z,99.90
2023-01-04T22:09:51.148Z,99.90
2023-01-04T22:20:11.529Z,99.90
